sensor_id;sensor_type;location;lat;lon;timestamp;pressure;altitude;pressure_sealevel;temperature;humidity
36748;BME280;22716;51.556;5.080;2023-04-02T00:00:14;100393.84;;;8.08;100.00
36748;BME280;22716;51.556;5.080;2023-04-02T00:02:54;100391.28;;;8.03;100.00
36748;BME280;22716;51.556;5.080;2023-04-02T00:05:36;100373.13;;;7.85;100.00
36748;BME280;22716;51.556;5.080;2023-04-02T00:08:21;100397.44;;;7.95;100.00
36748;BME280;22716;51.556;5.080;2023-04-02T00:10:53;100412.19;;;7.93;100.00
36748;BME280;22716;51.556;5.080;2023-04-02T00:13:29;100391.47;;;7.77;100.00
36748;BME280;22716;51.556;5.080;2023-04-02T00:16:00;100408.78;;;7.81;100.00
36748;BME280;22716;51.556;5.080;2023-04-02T00:18:39;100395.78;;;7.78;100.00
36748;BME280;22716;51.556;5.080;2023-04-02T00:21:19;100414.88;;;7.86;100.00
36748;BME280;22716;51.556;5.080;2023-04-02T00:23:48;100420.94;;;7.84;100.00
36748;BME280;22716;51.556;5.080;2023-04-02T00:26:21;100419.28;;;7.72;100.00
36748;BME280;22716;51.556;5.080;2023-04-02T00:28:51;100431.41;;;7.78;100.00
36748;BME280;22716;51.556;5.080;2023-04-02T00:31:20;100418.38;;;7.78;100.00
36748;BME280;22716;51.556;5.080;2023-04-02T00:33:49;100411.47;;;7.69;100.00
36748;BME280;22716;51.556;5.080;2023-04-02T00:36:22;100433.16;;;7.79;100.00
36748;BME280;22716;51.556;5.080;2023-04-02T00:38:57;100443.63;;;7.74;100.00
36748;BME280;22716;51.556;5.080;2023-04-02T00:41:28;100429.75;;;7.71;100.00
36748;BME280;22716;51.556;5.080;2023-04-02T00:44:02;100457.53;;;7.75;100.00
36748;BME280;22716;51.556;5.080;2023-04-02T00:46:39;100437.56;;;7.66;100.00
36748;BME280;22716;51.556;5.080;2023-04-02T00:49:18;100459.31;;;7.61;100.00
36748;BME280;22716;51.556;5.080;2023-04-02T00:51:53;100467.13;;;7.67;100.00
36748;BME280;22716;51.556;5.080;2023-04-02T00:54:27;100448.91;;;7.61;100.00
36748;BME280;22716;51.556;5.080;2023-04-02T00:57:00;100477.56;;;7.64;100.00
36748;BME280;22716;51.556;5.080;2023-04-02T00:59:31;100455.03;;;7.54;100.00
36748;BME280;22716;51.556;5.080;2023-04-02T01:02:21;100470.63;;;7.61;100.00
36748;BME280;22716;51.556;5.080;2023-04-02T01:04:53;100485.41;;;7.58;100.00
36748;BME280;22716;51.556;5.080;2023-04-02T01:07:34;100483.72;;;7.48;100.00
36748;BME280;22716;51.556;5.080;2023-04-02T01:10:21;100488.03;;;7.52;100.00
36748;BME280;22716;51.556;5.080;2023-04-02T01:13:03;100457.69;;;7.37;100.00
36748;BME280;22716;51.556;5.080;2023-04-02T01:15:40;100492.34;;;7.62;100.00
36748;BME280;22716;51.556;5.080;2023-04-02T01:18:20;100500.16;;;7.60;100.00
36748;BME280;22716;51.556;5.080;2023-04-02T01:21:09;100501.94;;;7.57;100.00
36748;BME280;22716;51.556;5.080;2023-04-02T01:23:52;100503.69;;;7.49;100.00
36748;BME280;22716;51.556;5.080;2023-04-02T01:29:17;100521.97;;;7.44;100.00
36748;BME280;22716;51.556;5.080;2023-04-02T01:31:48;100528.03;;;7.46;100.00
36748;BME280;22716;51.556;5.080;2023-04-02T01:34:22;100530.66;;;7.48;100.00
36748;BME280;22716;51.556;5.080;2023-04-02T01:37:07;100523.69;;;7.47;100.00
36748;BME280;22716;51.556;5.080;2023-04-02T01:39:48;100541.94;;;7.44;100.00
36748;BME280;22716;51.556;5.080;2023-04-02T01:42:22;100551.53;;;7.39;100.00
36748;BME280;22716;51.556;5.080;2023-04-02T01:45:00;100545.41;;;7.46;100.00
36748;BME280;22716;51.556;5.080;2023-04-02T01:47:31;100554.97;;;7.47;100.00
36748;BME280;22716;51.556;5.080;2023-04-02T01:50:03;100548.06;;;7.40;100.00
36748;BME280;22716;51.556;5.080;2023-04-02T01:52:36;100552.41;;;7.36;100.00
36748;BME280;22716;51.556;5.080;2023-04-02T01:55:08;100561.97;;;7.26;100.00
36748;BME280;22716;51.556;5.080;2023-04-02T01:57:40;100572.41;;;7.25;100.00
36748;BME280;22716;51.556;5.080;2023-04-02T02:00:15;100568.03;;;7.16;100.00
36748;BME280;22716;51.556;5.080;2023-04-02T02:02:47;100585.44;;;7.22;100.00
36748;BME280;22716;51.556;5.080;2023-04-02T02:05:19;100588.03;;;7.20;100.00
36748;BME280;22716;51.556;5.080;2023-04-02T02:07:49;100587.16;;;7.15;100.00
36748;BME280;22716;51.556;5.080;2023-04-02T02:10:23;100600.19;;;7.12;100.00
36748;BME280;22716;51.556;5.080;2023-04-02T02:12:54;100575.03;;;7.04;100.00
36748;BME280;22716;51.556;5.080;2023-04-02T02:15:31;100570.66;;;7.13;100.00
36748;BME280;22716;51.556;5.080;2023-04-02T02:18:03;100593.25;;;7.20;100.00
36748;BME280;22716;51.556;5.080;2023-04-02T02:20:33;100596.69;;;7.16;100.00
36748;BME280;22716;51.556;5.080;2023-04-02T02:23:03;100609.72;;;7.13;100.00
36748;BME280;22716;51.556;5.080;2023-04-02T02:25:33;100613.22;;;7.15;100.00
36748;BME280;22716;51.556;5.080;2023-04-02T02:28:06;100608.88;;;7.02;100.00
36748;BME280;22716;51.556;5.080;2023-04-02T02:30:43;100620.19;;;7.07;100.00
36748;BME280;22716;51.556;5.080;2023-04-02T02:33:15;100628.84;;;7.08;100.00
36748;BME280;22716;51.556;5.080;2023-04-02T02:35:50;100637.53;;;7.07;100.00
36748;BME280;22716;51.556;5.080;2023-04-02T02:38:38;100639.25;;;7.08;100.00
36748;BME280;22716;51.556;5.080;2023-04-02T02:41:15;100640.13;;;6.93;100.00
36748;BME280;22716;51.556;5.080;2023-04-02T02:43:54;100647.97;;;7.04;100.00
36748;BME280;22716;51.556;5.080;2023-04-02T02:46:28;100654.88;;;6.99;100.00
36748;BME280;22716;51.556;5.080;2023-04-02T02:48:59;100657.50;;;7.00;100.00
36748;BME280;22716;51.556;5.080;2023-04-02T02:51:38;100663.56;;;6.99;100.00
36748;BME280;22716;51.556;5.080;2023-04-02T02:54:08;100656.63;;;7.00;100.00
36748;BME280;22716;51.556;5.080;2023-04-02T02:56:42;100642.72;;;6.87;100.00
36748;BME280;22716;51.556;5.080;2023-04-02T02:59:14;100655.75;;;6.95;100.00
36748;BME280;22716;51.556;5.080;2023-04-02T03:01:47;100682.69;;;7.09;100.00
36748;BME280;22716;51.556;5.080;2023-04-02T03:04:19;100682.72;;;7.10;100.00
36748;BME280;22716;51.556;5.080;2023-04-02T03:06:51;100680.09;;;7.04;100.00
36748;BME280;22716;51.556;5.080;2023-04-02T03:09:31;100694.81;;;6.99;100.00
36748;BME280;22716;51.556;5.080;2023-04-02T03:12:06;100701.78;;;6.93;100.00
36748;BME280;22716;51.556;5.080;2023-04-02T03:14:43;100688.72;;;6.79;100.00
36748;BME280;22716;51.556;5.080;2023-04-02T03:17:22;100713.03;;;6.90;100.00
36748;BME280;22716;51.556;5.080;2023-04-02T03:19:57;100717.41;;;6.87;100.00
36748;BME280;22716;51.556;5.080;2023-04-02T03:22:34;100725.19;;;6.88;100.00
36748;BME280;22716;51.556;5.080;2023-04-02T03:25:20;100721.69;;;6.77;100.00
36748;BME280;22716;51.556;5.080;2023-04-02T03:27:53;100731.25;;;6.81;100.00
36748;BME280;22716;51.556;5.080;2023-04-02T03:30:28;100731.22;;;6.69;100.00
36748;BME280;22716;51.556;5.080;2023-04-02T03:33:02;100751.22;;;6.82;100.00
36748;BME280;22716;51.556;5.080;2023-04-02T03:35:34;100746.03;;;6.85;100.00
36748;BME280;22716;51.556;5.080;2023-04-02T03:38:10;100752.09;;;6.87;100.00
36748;BME280;22716;51.556;5.080;2023-04-02T03:40:42;100748.63;;;6.85;100.00
36748;BME280;22716;51.556;5.080;2023-04-02T03:43:18;100770.31;;;6.83;100.00
36748;BME280;22716;51.556;5.080;2023-04-02T03:45:52;100761.63;;;6.76;100.00
36748;BME280;22716;51.556;5.080;2023-04-02T03:48:30;100772.88;;;6.70;100.00
36748;BME280;22716;51.556;5.080;2023-04-02T03:51:05;100778.09;;;6.73;100.00
36748;BME280;22716;51.556;5.080;2023-04-02T03:53:34;100768.50;;;6.62;100.00
36748;BME280;22716;51.556;5.080;2023-04-02T03:56:04;100780.66;;;6.60;100.00
36748;BME280;22716;51.556;5.080;2023-04-02T03:58:37;100779.78;;;6.64;100.00
36748;BME280;22716;51.556;5.080;2023-04-02T04:01:13;100791.94;;;6.62;100.00
36748;BME280;22716;51.556;5.080;2023-04-02T04:03:49;100798.84;;;6.55;100.00
36748;BME280;22716;51.556;5.080;2023-04-02T04:06:23;100808.41;;;6.56;100.00
36748;BME280;22716;51.556;5.080;2023-04-02T04:08:55;100804.97;;;6.60;100.00
36748;BME280;22716;51.556;5.080;2023-04-02T04:11:31;100823.16;;;6.59;100.00
36748;BME280;22716;51.556;5.080;2023-04-02T04:14:05;100831.78;;;6.50;100.00
36748;BME280;22716;51.556;5.080;2023-04-02T04:16:40;100837.84;;;6.48;100.00
36748;BME280;22716;51.556;5.080;2023-04-02T04:19:17;100838.72;;;6.48;100.00
36748;BME280;22716;51.556;5.080;2023-04-02T04:21:49;100846.53;;;6.50;100.00
36748;BME280;22716;51.556;5.080;2023-04-02T04:24:19;100849.19;;;6.54;100.00
36748;BME280;22716;51.556;5.080;2023-04-02T04:26:53;100862.16;;;6.50;100.00
36748;BME280;22716;51.556;5.080;2023-04-02T04:29:34;100855.19;;;6.49;100.00
36748;BME280;22716;51.556;5.080;2023-04-02T04:32:18;100865.63;;;6.46;100.00
36748;BME280;22716;51.556;5.080;2023-04-02T04:34:58;100863.00;;;6.43;100.00
36748;BME280;22716;51.556;5.080;2023-04-02T04:37:31;100869.97;;;6.50;100.00
36748;BME280;22716;51.556;5.080;2023-04-02T04:40:08;100876.06;;;6.55;100.00
36748;BME280;22716;51.556;5.080;2023-04-02T04:42:41;100888.16;;;6.47;100.00
36748;BME280;22716;51.556;5.080;2023-04-02T04:45:27;100888.97;;;6.38;100.00
36748;BME280;22716;51.556;5.080;2023-04-02T04:48:00;100885.47;;;6.33;100.00
36748;BME280;22716;51.556;5.080;2023-04-02T04:50:36;100878.50;;;6.32;100.00
36748;BME280;22716;51.556;5.080;2023-04-02T04:53:11;100902.00;;;6.41;100.00
36748;BME280;22716;51.556;5.080;2023-04-02T04:55:42;100909.06;;;6.54;100.00
36748;BME280;22716;51.556;5.080;2023-04-02T04:58:17;100904.69;;;6.53;100.00
36748;BME280;22716;51.556;5.080;2023-04-02T05:00:55;100918.50;;;6.45;100.00
36748;BME280;22716;51.556;5.080;2023-04-02T05:03:30;100926.31;;;6.42;100.00
36748;BME280;22716;51.556;5.080;2023-04-02T05:06:08;100919.31;;;6.38;100.00
36748;BME280;22716;51.556;5.080;2023-04-02T05:08:43;100924.53;;;6.38;100.00
36748;BME280;22716;51.556;5.080;2023-04-02T05:11:20;100929.69;;;6.35;100.00
36748;BME280;22716;51.556;5.080;2023-04-02T05:13:53;100945.31;;;6.33;100.00
36748;BME280;22716;51.556;5.080;2023-04-02T05:16:28;100934.81;;;6.24;100.00
36748;BME280;22716;51.556;5.080;2023-04-02T05:19:05;100946.16;;;6.32;100.00
36748;BME280;22716;51.556;5.080;2023-04-02T05:21:42;100949.66;;;6.33;100.00
36748;BME280;22716;51.556;5.080;2023-04-02T05:24:37;100959.16;;;6.28;100.00
36748;BME280;22716;51.556;5.080;2023-04-02T05:27:19;100959.97;;;6.24;100.00
36748;BME280;22716;51.556;5.080;2023-04-02T05:29:54;100967.75;;;6.20;100.00
36748;BME280;22716;51.556;5.080;2023-04-02T05:32:27;100970.41;;;6.25;100.00
36748;BME280;22716;51.556;5.080;2023-04-02T05:34:59;100969.63;;;6.34;100.00
36748;BME280;22716;51.556;5.080;2023-04-02T05:37:33;100971.31;;;6.32;100.00
36748;BME280;22716;51.556;5.080;2023-04-02T05:40:11;100987.78;;;6.28;100.00
36748;BME280;22716;51.556;5.080;2023-04-02T05:42:43;100977.16;;;6.06;100.00
36748;BME280;22716;51.556;5.080;2023-04-02T05:45:18;101001.50;;;6.13;100.00
36748;BME280;22716;51.556;5.080;2023-04-02T05:47:50;100954.34;;;5.83;100.00
36748;BME280;22716;51.556;5.080;2023-04-02T05:50:27;101002.31;;;6.07;100.00
36748;BME280;22716;51.556;5.080;2023-04-02T05:53:05;101017.13;;;6.13;100.00
36748;BME280;22716;51.556;5.080;2023-04-02T05:55:43;101020.56;;;6.10;100.00
36748;BME280;22716;51.556;5.080;2023-04-02T05:58:21;101023.09;;;6.04;100.00
36748;BME280;22716;51.556;5.080;2023-04-02T06:01:03;101029.97;;;5.99;100.00
36748;BME280;22716;51.556;5.080;2023-04-02T06:03:39;101040.41;;;6.01;100.00
36748;BME280;22716;51.556;5.080;2023-04-02T06:06:18;101030.84;;;6.00;100.00
36748;BME280;22716;51.556;5.080;2023-04-02T06:08:57;101053.44;;;6.04;100.00
36748;BME280;22716;51.556;5.080;2023-04-02T06:11:32;101050.72;;;5.96;100.00
36748;BME280;22716;51.556;5.080;2023-04-02T06:14:08;101064.69;;;6.01;100.00
36748;BME280;22716;51.556;5.080;2023-04-02T06:16:38;101065.59;;;6.06;100.00
36748;BME280;22716;51.556;5.080;2023-04-02T06:19:14;101071.63;;;6.05;100.00
36748;BME280;22716;51.556;5.080;2023-04-02T06:21:45;101081.09;;;5.99;100.00
36748;BME280;22716;51.556;5.080;2023-04-02T06:24:19;101080.97;;;5.88;100.00
36748;BME280;22716;51.556;5.080;2023-04-02T06:26:54;101087.91;;;5.86;100.00
36748;BME280;22716;51.556;5.080;2023-04-02T06:29:28;101090.50;;;5.88;100.00
36748;BME280;22716;51.556;5.080;2023-04-02T06:32:05;101098.31;;;5.86;100.00
36748;BME280;22716;51.556;5.080;2023-04-02T06:34:36;101098.34;;;5.89;100.00
36748;BME280;22716;51.556;5.080;2023-04-02T06:37:14;101105.34;;;5.96;100.00
36748;BME280;22716;51.556;5.080;2023-04-02T06:39:47;101101.78;;;5.88;100.00
36748;BME280;22716;51.556;5.080;2023-04-02T06:42:18;101120.03;;;5.91;100.00
36748;BME280;22716;51.556;5.080;2023-04-02T06:44:49;101125.09;;;5.84;100.00
36748;BME280;22716;51.556;5.080;2023-04-02T06:47:25;101132.94;;;5.85;100.00
36748;BME280;22716;51.556;5.080;2023-04-02T06:50:02;101128.56;;;5.83;100.00
36748;BME280;22716;51.556;5.080;2023-04-02T06:52:36;101144.34;;;5.95;100.00
36748;BME280;22716;51.556;5.080;2023-04-02T06:55:28;101144.34;;;5.95;100.00
36748;BME280;22716;51.556;5.080;2023-04-02T06:57:58;101152.16;;;5.96;100.00
36748;BME280;22716;51.556;5.080;2023-04-02T07:00:33;101147.84;;;5.95;100.00
36748;BME280;22716;51.556;5.080;2023-04-02T07:03:06;101138.03;;;5.78;100.00
36748;BME280;22716;51.556;5.080;2023-04-02T07:05:35;101172.00;;;5.88;100.00
36748;BME280;22716;51.556;5.080;2023-04-02T07:08:05;101174.38;;;5.75;100.00
36748;BME280;22716;51.556;5.080;2023-04-02T07:10:36;101180.47;;;5.75;100.00
36748;BME280;22716;51.556;5.080;2023-04-02T07:13:05;101189.19;;;5.80;100.00
36748;BME280;22716;51.556;5.080;2023-04-02T07:15:34;101183.84;;;5.71;100.00
36748;BME280;22716;51.556;5.080;2023-04-02T07:18:03;101207.31;;;5.74;100.00
36748;BME280;22716;51.556;5.080;2023-04-02T07:20:33;101214.13;;;5.66;100.00
36748;BME280;22716;51.556;5.080;2023-04-02T07:23:02;101209.81;;;5.68;100.00
36748;BME280;22716;51.556;5.080;2023-04-02T07:25:31;101224.75;;;5.81;100.00
36748;BME280;22716;51.556;5.080;2023-04-02T07:28:04;101228.16;;;5.77;100.00
36748;BME280;22716;51.556;5.080;2023-04-02T07:30:34;101216.56;;;5.57;100.00
36748;BME280;22716;51.556;5.080;2023-04-02T07:33:04;101222.50;;;5.48;100.00
36748;BME280;22716;51.556;5.080;2023-04-02T07:35:33;101238.22;;;5.56;100.00
36748;BME280;22716;51.556;5.080;2023-04-02T07:38:02;101247.09;;;5.69;100.00
36748;BME280;22716;51.556;5.080;2023-04-02T07:40:31;101237.31;;;5.54;100.00
36748;BME280;22716;51.556;5.080;2023-04-02T07:43:00;101258.28;;;5.64;100.00
36748;BME280;22716;51.556;5.080;2023-04-02T07:45:32;101256.66;;;5.71;100.00
36748;BME280;22716;51.556;5.080;2023-04-02T07:48:04;101273.47;;;5.91;100.00
36748;BME280;22716;51.556;5.080;2023-04-02T07:50:33;101274.84;;;5.71;100.00
36748;BME280;22716;51.556;5.080;2023-04-02T07:53:02;101279.16;;;5.69;100.00
36748;BME280;22716;51.556;5.080;2023-04-02T07:55:31;101277.19;;;5.56;100.00
36748;BME280;22716;51.556;5.080;2023-04-02T07:58:00;101274.53;;;5.51;100.00
36748;BME280;22716;51.556;5.080;2023-04-02T08:00:32;101274.31;;;5.39;100.00
36748;BME280;22716;51.556;5.080;2023-04-02T08:03:00;101274.22;;;5.33;100.00
36748;BME280;22716;51.556;5.080;2023-04-02T08:05:29;101286.53;;;5.45;100.00
36748;BME280;22716;51.556;5.080;2023-04-02T08:07:58;101289.34;;;5.57;100.00
36748;BME280;22716;51.556;5.080;2023-04-02T08:10:27;101297.38;;;5.69;100.00
36748;BME280;22716;51.556;5.080;2023-04-02T08:12:55;101303.50;;;5.74;100.00
36748;BME280;22716;51.556;5.080;2023-04-02T08:15:24;101307.81;;;5.74;100.00
36748;BME280;22716;51.556;5.080;2023-04-02T08:17:55;101307.41;;;5.49;100.00
36748;BME280;22716;51.556;5.080;2023-04-02T08:20:24;101313.31;;;5.41;100.00
36748;BME280;22716;51.556;5.080;2023-04-02T08:22:53;101332.44;;;5.43;100.00
36748;BME280;22716;51.556;5.080;2023-04-02T08:25:22;101327.13;;;5.38;100.00
36748;BME280;22716;51.556;5.080;2023-04-02T08:27:51;101332.50;;;5.47;100.00
36748;BME280;22716;51.556;5.080;2023-04-02T08:30:20;101341.41;;;5.60;100.00
36748;BME280;22716;51.556;5.080;2023-04-02T08:32:49;101339.78;;;5.68;100.00
36748;BME280;22716;51.556;5.080;2023-04-02T08:35:20;101351.44;;;5.88;100.00
36748;BME280;22716;51.556;5.080;2023-04-02T08:37:49;101360.94;;;5.86;100.00
36748;BME280;22716;51.556;5.080;2023-04-02T08:40:22;101363.31;;;5.74;100.00
36748;BME280;22716;51.556;5.080;2023-04-02T08:43:06;101372.16;;;5.84;100.00
36748;BME280;22716;51.556;5.080;2023-04-02T08:45:48;101381.75;;;5.86;100.00
36748;BME280;22716;51.556;5.080;2023-04-02T08:48:21;101370.22;;;5.72;100.00
36748;BME280;22716;51.556;5.080;2023-04-02T08:50:53;101389.44;;;5.82;100.00
36748;BME280;22716;51.556;5.080;2023-04-02T08:53:25;101389.31;;;5.76;100.00
36748;BME280;22716;51.556;5.080;2023-04-02T08:55:59;101390.97;;;5.69;100.00
36748;BME280;22716;51.556;5.080;2023-04-02T08:58:38;101394.09;;;5.53;100.00
36748;BME280;22716;51.556;5.080;2023-04-02T09:01:16;101405.66;;;5.69;100.00
36748;BME280;22716;51.556;5.080;2023-04-02T09:03:49;101408.72;;;5.91;100.00
36748;BME280;22716;51.556;5.080;2023-04-02T09:06:22;101419.16;;;5.94;100.00
36748;BME280;22716;51.556;5.080;2023-04-02T09:08:53;101426.03;;;5.89;100.00
36748;BME280;22716;51.556;5.080;2023-04-02T09:11:24;101426.84;;;5.88;100.00
36748;BME280;22716;51.556;5.080;2023-04-02T09:13:56;101433.09;;;5.98;100.00
36748;BME280;22716;51.556;5.080;2023-04-02T09:16:39;101433.88;;;5.94;100.00
36748;BME280;22716;51.556;5.080;2023-04-02T09:19:15;101436.53;;;5.95;100.00
36748;BME280;22716;51.556;5.080;2023-04-02T09:21:54;101440.91;;;5.99;100.00
36748;BME280;22716;51.556;5.080;2023-04-02T09:24:26;101442.47;;;5.88;100.00
36748;BME280;22716;51.556;5.080;2023-04-02T09:26:55;101441.63;;;5.91;100.00
36748;BME280;22716;51.556;5.080;2023-04-02T09:29:40;101448.72;;;5.98;100.00
36748;BME280;22716;51.556;5.080;2023-04-02T09:32:32;101456.53;;;5.99;100.00
36748;BME280;22716;51.556;5.080;2023-04-02T09:35:14;101463.59;;;6.06;100.00
36748;BME280;22716;51.556;5.080;2023-04-02T09:37:47;101452.41;;;6.12;100.00
36748;BME280;22716;51.556;5.080;2023-04-02T09:40:21;101467.22;;;6.14;100.00
36748;BME280;22716;51.556;5.080;2023-04-02T09:43:10;101475.22;;;6.27;100.00
36748;BME280;22716;51.556;5.080;2023-04-02T09:45:41;101471.63;;;6.20;100.00
36748;BME280;22716;51.556;5.080;2023-04-02T09:48:22;101474.19;;;6.17;100.00
36748;BME280;22716;51.556;5.080;2023-04-02T09:51:04;101485.53;;;6.20;100.00
36748;BME280;22716;51.556;5.080;2023-04-02T09:53:38;101487.19;;;6.17;100.00
36748;BME280;22716;51.556;5.080;2023-04-02T09:56:10;101493.28;;;6.17;100.00
36748;BME280;22716;51.556;5.080;2023-04-02T09:58:40;101488.06;;;6.16;100.00
36748;BME280;22716;51.556;5.080;2023-04-02T10:01:26;101499.50;;;6.26;100.00
36748;BME280;22716;51.556;5.080;2023-04-02T10:03:56;101503.97;;;6.33;100.00
36748;BME280;22716;51.556;5.080;2023-04-02T10:06:27;101510.31;;;6.48;100.00
36748;BME280;22716;51.556;5.080;2023-04-02T10:09:18;101509.47;;;6.51;100.00
36748;BME280;22716;51.556;5.080;2023-04-02T10:11:49;101515.31;;;6.36;100.00
36748;BME280;22716;51.556;5.080;2023-04-02T10:14:21;101517.19;;;6.45;100.00
36748;BME280;22716;51.556;5.080;2023-04-02T10:16:56;101526.66;;;6.40;100.00
36748;BME280;22716;51.556;5.080;2023-04-02T10:19:28;101536.25;;;6.44;100.00
36748;BME280;22716;51.556;5.080;2023-04-02T10:22:00;101541.66;;;6.56;100.00
36748;BME280;22716;51.556;5.080;2023-04-02T10:24:33;101538.28;;;6.61;100.00
36748;BME280;22716;51.556;5.080;2023-04-02T10:27:10;101552.25;;;6.66;100.00
36748;BME280;22716;51.556;5.080;2023-04-02T10:29:56;101546.91;;;6.57;100.00
36748;BME280;22716;51.556;5.080;2023-04-02T10:32:31;101546.78;;;6.50;100.00
36748;BME280;22716;51.556;5.080;2023-04-02T10:35:04;101540.66;;;6.48;100.00
36748;BME280;22716;51.556;5.080;2023-04-02T10:37:56;101549.47;;;6.54;100.00
36748;BME280;22716;51.556;5.080;2023-04-02T10:40:34;101543.53;;;6.64;100.00
36748;BME280;22716;51.556;5.080;2023-04-02T10:43:29;101551.44;;;6.69;100.00
36748;BME280;22716;51.556;5.080;2023-04-02T10:46:04;101561.31;;;6.39;100.00
36748;BME280;22716;51.556;5.080;2023-04-02T10:48:39;101560.38;;;6.34;100.00
36748;BME280;22716;51.556;5.080;2023-04-02T10:51:19;101561.22;;;6.33;100.00
36748;BME280;22716;51.556;5.080;2023-04-02T10:53:58;101579.38;;;6.31;100.00
36748;BME280;22716;51.556;5.080;2023-04-02T10:56:34;101558.38;;;6.20;100.00
36748;BME280;22716;51.556;5.080;2023-04-02T10:59:06;101589.34;;;6.53;100.00
36748;BME280;22716;51.556;5.080;2023-04-02T11:01:40;101591.13;;;6.54;100.00
36748;BME280;22716;51.556;5.080;2023-04-02T11:04:16;101591.19;;;6.59;100.00
36748;BME280;22716;51.556;5.080;2023-04-02T11:06:49;101590.19;;;6.52;100.00
36748;BME280;22716;51.556;5.080;2023-04-02T11:09:23;101599.66;;;6.46;100.00
36748;BME280;22716;51.556;5.080;2023-04-02T11:11:58;101605.75;;;6.49;100.00
36748;BME280;22716;51.556;5.080;2023-04-02T11:14:29;101604.84;;;6.46;100.00
36748;BME280;22716;51.556;5.080;2023-04-02T11:16:59;101610.16;;;6.52;100.00
36748;BME280;22716;51.556;5.080;2023-04-02T11:19:30;101624.31;;;6.66;100.00
36748;BME280;22716;51.556;5.080;2023-04-02T11:21:59;101623.31;;;6.59;100.00
36748;BME280;22716;51.556;5.080;2023-04-02T11:24:38;101633.75;;;6.61;100.00
36748;BME280;22716;51.556;5.080;2023-04-02T11:27:23;101628.41;;;6.53;100.00
36748;BME280;22716;51.556;5.080;2023-04-02T11:30:00;101633.13;;;6.75;100.00
36748;BME280;22716;51.556;5.080;2023-04-02T11:32:34;101647.16;;;6.82;100.00
36748;BME280;22716;51.556;5.080;2023-04-02T11:40:48;101645.09;;;7.14;100.00
36748;BME280;22716;51.556;5.080;2023-04-02T11:43:50;101649.28;;;7.04;100.00
36748;BME280;22716;51.556;5.080;2023-04-02T11:46:44;101651.22;;;7.16;100.00
36748;BME280;22716;51.556;5.080;2023-04-02T11:49:35;101658.06;;;7.09;100.00
36748;BME280;22716;51.556;5.080;2023-04-02T11:52:22;101654.41;;;6.98;100.00
36748;BME280;22716;51.556;5.080;2023-04-02T11:55:26;101662.53;;;7.19;100.00
36748;BME280;22716;51.556;5.080;2023-04-02T11:58:28;101673.13;;;7.28;100.00
36748;BME280;22716;51.556;5.080;2023-04-02T12:04:31;101684.81;;;7.53;100.00
36748;BME280;22716;51.556;5.080;2023-04-02T12:07:18;101681.19;;;7.42;100.00
36748;BME280;22716;51.556;5.080;2023-04-02T12:09:53;101681.44;;;7.57;100.00
36748;BME280;22716;51.556;5.080;2023-04-02T12:12:26;101681.53;;;7.65;100.00
36748;BME280;22716;51.556;5.080;2023-04-02T12:14:57;101688.59;;;7.72;100.00
36748;BME280;22716;51.556;5.080;2023-04-02T12:17:29;101689.63;;;7.84;100.00
36748;BME280;22716;51.556;5.080;2023-04-02T12:20:12;101684.94;;;7.61;100.00
36748;BME280;22716;51.556;5.080;2023-04-02T12:22:48;101701.78;;;7.82;100.00
36748;BME280;22716;51.556;5.080;2023-04-02T12:25:24;101699.03;;;7.73;100.00
36748;BME280;22716;51.556;5.080;2023-04-02T12:28:13;101696.47;;;7.75;100.00
36748;BME280;22716;51.556;5.080;2023-04-02T12:30:43;101720.00;;;7.79;100.00
36748;BME280;22716;51.556;5.080;2023-04-02T12:33:27;101708.75;;;7.83;100.00
36748;BME280;22716;51.556;5.080;2023-04-02T12:36:01;101693.97;;;7.84;100.00
36748;BME280;22716;51.556;5.080;2023-04-02T12:38:34;101719.94;;;7.75;100.00
36748;BME280;22716;51.556;5.080;2023-04-02T12:41:15;101719.00;;;7.71;100.00
36748;BME280;22716;51.556;5.080;2023-04-02T12:43:56;101707.25;;;7.42;99.20
36748;BME280;22716;51.556;5.080;2023-04-02T12:46:25;101723.84;;;7.49;99.72
36748;BME280;22716;51.556;5.080;2023-04-02T12:49:04;101719.94;;;7.75;99.30
36748;BME280;22716;51.556;5.080;2023-04-02T12:51:37;101728.94;;;7.95;98.72
36748;BME280;22716;51.556;5.080;2023-04-02T12:54:12;101729.97;;;8.06;98.24
36748;BME280;22716;51.556;5.080;2023-04-02T12:56:42;101718.72;;;8.12;97.42
36748;BME280;22716;51.556;5.080;2023-04-02T12:59:26;101728.53;;;8.28;97.42
36748;BME280;22716;51.556;5.080;2023-04-02T13:01:57;101725.78;;;8.20;96.18
36748;BME280;22716;51.556;5.080;2023-04-02T13:04:27;101717.91;;;8.17;95.91
36748;BME280;22716;51.556;5.080;2023-04-02T13:06:59;101719.69;;;8.18;95.83
36748;BME280;22716;51.556;5.080;2023-04-02T13:09:33;101719.84;;;8.27;95.92
36748;BME280;22716;51.556;5.080;2023-04-02T13:12:02;101708.41;;;8.22;95.56
36748;BME280;22716;51.556;5.080;2023-04-02T13:14:32;101712.13;;;8.36;95.77
36748;BME280;22716;51.556;5.080;2023-04-02T13:17:02;101701.75;;;8.45;94.88
36748;BME280;22716;51.556;5.080;2023-04-02T13:19:32;101717.16;;;8.24;94.06
36748;BME280;22716;51.556;5.080;2023-04-02T13:22:28;101710.03;;;8.14;95.10
36748;BME280;22716;51.556;5.080;2023-04-02T13:24:57;101728.72;;;8.41;95.10
36748;BME280;22716;51.556;5.080;2023-04-02T13:27:26;101718.41;;;8.55;94.79
36748;BME280;22716;51.556;5.080;2023-04-02T13:29:54;101726.47;;;8.73;94.39
36748;BME280;22716;51.556;5.080;2023-04-02T13:32:24;101725.69;;;8.80;93.54
36748;BME280;22716;51.556;5.080;2023-04-02T13:34:56;101726.34;;;8.61;93.40
36748;BME280;22716;51.556;5.080;2023-04-02T13:37:38;101721.91;;;8.57;93.38
36748;BME280;22716;51.556;5.080;2023-04-02T13:40:12;101734.34;;;8.78;93.22
36748;BME280;22716;51.556;5.080;2023-04-02T13:42:42;101724.78;;;8.77;93.00